Time;durP1;ratioP1;P1;durP2;ratioP2;P2;SDS_P1;SDS_P2;PMS_P1;PMS_P2;Temp;Humidity;BMP_temperature;BMP_pressure;BME280_temperature;BME280_humidity;BME280_pressure;Samples;Min_cycle;Max_cycle;Signal;HPM_P1;HPM_P2
2023/02/25 00:01:42;;;;;;;15.00;1.60;;;;;;;5.04;100.00;100686.19;2616248;36;20038;-52
2023/02/25 00:04:10;;;;;;;11.55;2.42;;;;;;;5.08;100.00;100689.53;2616260;31;20042;-52
2023/02/25 00:06:41;;;;;;;16.10;2.28;;;;;;;5.09;100.00;100686.75;2616923;36;20890;-55
2023/02/25 00:09:10;;;;;;;16.98;2.17;;;;;;;5.10;100.00;100679.59;2616708;36;20050;-51
2023/02/25 00:11:38;;;;;;;17.30;2.17;;;;;;;5.20;100.00;100675.31;2616883;36;20031;-52
2023/02/25 00:14:07;;;;;;;13.65;2.30;;;;;;;5.25;100.00;100681.19;2616050;36;20026;-50
2023/02/25 00:16:35;;;;;;;13.53;2.53;;;;;;;5.04;100.00;100701.34;2616338;36;20041;-54
2023/02/25 00:19:06;;;;;;;11.18;2.10;;;;;;;4.88;100.00;100710.38;2615867;36;20041;-51
2023/02/25 00:21:34;;;;;;;9.88;1.60;;;;;;;4.85;100.00;100701.75;2616742;36;20038;-53
2023/02/25 00:24:05;;;;;;;5.03;1.20;;;;;;;4.75;100.00;100696.16;2616556;31;20045;-57
2023/02/25 00:26:34;;;;;;;13.70;2.47;;;;;;;4.67;100.00;100688.69;2615424;36;20058;-51
2023/02/25 00:29:04;;;;;;;12.82;1.75;;;;;;;4.64;100.00;100688.00;2614790;36;20038;-53
2023/02/25 00:31:33;;;;;;;8.68;1.23;;;;;;;4.72;100.00;100685.69;2613792;36;20042;-53
2023/02/25 00:34:02;;;;;;;11.80;1.50;;;;;;;4.66;100.00;100688.78;2612895;36;20057;-51
2023/02/25 00:36:30;;;;;;;13.25;1.30;;;;;;;4.52;100.00;100701.22;2615613;31;20038;-49
2023/02/25 00:38:59;;;;;;;4.27;1.20;;;;;;;4.61;100.00;100701.53;2615402;36;20033;-51
2023/02/25 00:41:31;;;;;;;17.90;2.85;;;;;;;4.65;100.00;100692.41;2615991;36;20439;-50
2023/02/25 00:44:01;;;;;;;11.00;2.13;;;;;;;4.62;100.00;100692.59;2615079;36;20035;-54
2023/02/25 00:46:30;;;;;;;14.48;2.08;;;;;;;4.71;100.00;100694.66;2615228;31;20579;-50
2023/02/25 00:49:00;;;;;;;20.33;2.63;;;;;;;4.65;100.00;100695.06;2613327;36;20450;-51
2023/02/25 00:51:31;;;;;;;9.57;2.03;;;;;;;4.56;100.00;100704.53;2616591;31;20038;-56
2023/02/25 00:54:00;;;;;;;8.52;1.40;;;;;;;4.64;100.00;100704.00;2616302;36;20026;-56
2023/02/25 00:56:31;;;;;;;16.83;2.63;;;;;;;4.65;100.00;100705.72;2615871;31;20065;-54
2023/02/25 00:59:01;;;;;;;14.25;1.88;;;;;;;4.42;100.00;100713.44;2616252;36;20030;-49
2023/02/25 01:01:32;;;;;;;14.90;2.53;;;;;;;4.40;100.00;100723.31;2616223;36;20026;-50
2023/02/25 01:04:00;;;;;;;13.27;1.67;;;;;;;4.47;100.00;100713.13;2616242;36;20436;-56
2023/02/25 01:06:30;;;;;;;10.05;2.20;;;;;;;4.48;100.00;100713.03;2615797;36;20042;-51
2023/02/25 01:08:59;;;;;;;12.65;2.30;;;;;;;4.45;100.00;100702.56;2616712;36;20456;-49
2023/02/25 01:11:32;;;;;;;10.82;2.78;;;;;;;4.40;100.00;100710.00;2615425;36;20042;-49
2023/02/25 01:14:02;;;;;;;17.88;2.58;;;;;;;4.43;100.00;100715.16;2615957;36;20027;-51
2023/02/25 01:16:32;;;;;;;8.68;1.98;;;;;;;4.33;100.00;100727.38;2616911;31;20022;-54
2023/02/25 01:19:03;;;;;;;18.75;1.75;;;;;;;4.33;100.00;100714.88;2615827;36;20503;-49
2023/02/25 01:21:34;;;;;;;8.75;1.60;;;;;;;4.39;100.00;100724.31;2616458;36;20431;-53
2023/02/25 01:24:05;;;;;;;15.45;2.58;;;;;;;4.43;100.00;100719.63;2616178;36;20039;-50
2023/02/25 01:26:37;;;;;;;13.93;2.35;;;;;;;4.48;100.00;100713.03;2615310;36;20038;-49
2023/02/25 01:29:09;;;;;;;14.60;1.85;;;;;;;4.52;100.00;100709.22;2615296;36;20086;-51
2023/02/25 01:31:37;;;;;;;16.70;2.28;;;;;;;4.62;100.00;100713.94;2612492;36;20026;-50
2023/02/25 01:34:08;;;;;;;9.80;2.17;;;;;;;4.69;100.00;100707.25;2614210;36;20034;-53
2023/02/25 01:36:36;;;;;;;13.82;2.47;;;;;;;4.65;100.00;100711.94;2614282;36;20022;-54
2023/02/25 01:39:06;;;;;;;18.50;2.25;;;;;;;4.71;100.00;100715.97;2611604;36;20046;-57
2023/02/25 01:41:38;;;;;;;11.55;2.80;;;;;;;4.71;100.00;100710.66;2615591;31;20061;-49
2023/02/25 01:44:10;;;;;;;12.63;1.98;;;;;;;4.78;100.00;100705.78;2615438;31;20058;-57
2023/02/25 01:46:39;;;;;;;10.45;2.45;;;;;;;4.83;100.00;100712.50;2613124;36;20042;-51
2023/02/25 01:49:13;;;;;;;10.77;2.75;;;;;;;4.79;100.00;100703.00;2613632;36;20026;-52
2023/02/25 01:51:42;;;;;;;13.05;2.40;;;;;;;4.88;100.00;100712.19;2614006;36;20023;-54
2023/02/25 01:54:14;;;;;;;10.75;2.65;;;;;;;4.85;100.00;100713.25;2615641;36;20022;-55
2023/02/25 01:56:50;;;;;;;17.00;2.03;;;;;;;4.88;100.00;100723.72;2616159;36;20034;-55
2023/02/25 01:59:20;;;;;;;16.45;2.15;;;;;;;4.96;100.00;100722.34;2616389;36;20041;-49
2023/02/25 02:01:48;;;;;;;16.20;3.10;;;;;;;4.90;100.00;100721.81;2616017;36;20061;-49
2023/02/25 02:04:19;;;;;;;11.02;1.80;;;;;;;5.18;100.00;100722.63;2614857;36;20562;-49
2023/02/25 02:06:50;;;;;;;16.05;2.35;;;;;;;5.26;100.00;100717.59;2614560;36;20030;-53
2023/02/25 02:09:22;;;;;;;13.93;2.53;;;;;;;5.26;100.00;100717.59;2614051;36;20034;-51
2023/02/25 02:11:53;;;;;;;12.88;2.10;;;;;;;5.23;100.00;100720.47;2615268;36;20045;-54
2023/02/25 02:14:26;;;;;;;13.85;2.72;;;;;;;5.33;100.00;100711.81;2614261;36;20030;-51
2023/02/25 02:17:05;;;;;;;16.50;2.40;;;;;;;5.35;100.00;100704.59;2615297;36;20034;-49
2023/02/25 02:19:45;;;;;;;14.82;2.20;;;;;;;5.33;100.00;100711.81;2614519;36;20054;-50
2023/02/25 02:22:23;;;;;;;17.48;2.85;;;;;;;5.30;100.00;100704.91;2613791;31;20551;-52
2023/02/25 02:25:33;;;;;;;19.90;3.13;;;;;;;5.38;100.00;100701.69;2613924;36;20045;-55
2023/02/25 02:28:29;;;;;;;15.48;3.22;;;;;;;5.38;100.00;100702.53;2612068;36;20030;-50
2023/02/25 02:31:21;;;;;;;15.68;2.45;;;;;;;5.54;100.00;100705.00;2614853;36;20035;-59
2023/02/25 02:34:00;;;;;;;24.92;3.08;;;;;;;5.47;100.00;100701.06;2613886;36;20038;-56
2023/02/25 02:36:38;;;;;;;12.77;2.40;;;;;;;5.44;100.00;100709.28;2615508;36;20035;-55
2023/02/25 02:39:17;;;;;;;13.88;2.33;;;;;;;5.52;100.00;100704.28;2614282;36;20439;-54
2023/02/25 02:41:51;;;;;;;15.50;2.97;;;;;;;5.53;100.00;100705.97;2613375;36;20034;-52
2023/02/25 02:44:26;;;;;;;21.35;3.35;;;;;;;5.55;100.00;100704.06;2614392;36;20045;-50
2023/02/25 02:47:02;;;;;;;15.60;2.63;;;;;;;5.41;100.00;100715.69;2614138;36;21091;-53
2023/02/25 02:49:38;;;;;;;30.35;4.32;;;;;;;5.42;100.00;100711.22;2613727;36;20061;-49
2023/02/25 02:52:14;;;;;;;17.98;2.72;;;;;;;5.30;100.00;100704.03;2614364;31;20038;-50
2023/02/25 02:54:49;;;;;;;13.75;2.88;;;;;;;5.30;100.00;100710.25;2614229;36;20438;-55
2023/02/25 02:57:18;;;;;;;9.90;2.75;;;;;;;5.35;100.00;100709.94;2614451;36;20038;-52
2023/02/25 02:59:52;;;;;;;16.55;3.10;;;;;;;5.39;100.00;100708.75;2614208;36;20101;-55
2023/02/25 03:02:28;;;;;;;16.17;3.03;;;;;;;5.41;100.00;100705.00;2614286;36;20046;-50
2023/02/25 03:05:02;;;;;;;13.50;2.78;;;;;;;5.40;100.00;100705.09;2616145;31;20455;-53
2023/02/25 03:07:34;;;;;;;15.27;2.92;;;;;;;5.41;100.00;100714.84;2615413;36;20039;-53
2023/02/25 03:10:06;;;;;;;22.23;4.10;;;;;;;5.43;100.00;100707.56;2615655;31;20034;-55
2023/02/25 03:12:37;;;;;;;16.55;2.58;;;;;;;5.38;100.00;100707.88;2615011;36;20890;-53
2023/02/25 03:15:07;;;;;;;13.90;2.53;;;;;;;5.37;100.00;100710.66;2616071;36;20030;-53
2023/02/25 03:17:45;;;;;;;10.73;1.92;;;;;;;5.39;100.00;100719.44;2614681;36;20057;-50
2023/02/25 03:20:18;;;;;;;18.05;2.47;;;;;;;5.42;100.00;100711.22;2616069;36;20551;-52
2023/02/25 03:22:50;;;;;;;14.65;2.25;;;;;;;5.49;100.00;100727.63;2616129;36;20065;-53
2023/02/25 03:25:22;;;;;;;15.05;2.70;;;;;;;5.42;100.00;100733.41;2615839;36;20026;-51
2023/02/25 03:27:54;;;;;;;15.43;2.97;;;;;;;5.26;100.00;100732.75;2615800;36;20418;-55
2023/02/25 03:30:31;;;;;;;19.55;3.20;;;;;;;5.16;100.00;100737.00;2614651;31;20038;-52
2023/02/25 03:33:06;;;;;;;11.15;2.40;;;;;;;5.05;100.00;100729.72;2614201;36;20623;-55
2023/02/25 03:35:39;;;;;;;18.15;2.55;;;;;;;5.21;100.00;100730.41;2615562;36;20038;-59
2023/02/25 03:38:12;;;;;;;14.60;1.98;;;;;;;5.12;100.00;100733.69;2615551;36;20045;-54
2023/02/25 03:40:43;;;;;;;22.63;3.13;;;;;;;5.00;100.00;100731.84;2613882;36;20038;-50
2023/02/25 03:43:16;;;;;;;14.15;2.28;;;;;;;5.05;100.00;100735.06;2614394;36;20057;-53
2023/02/25 03:45:46;;;;;;;15.32;1.85;;;;;;;5.08;100.00;100740.22;2614114;36;20046;-52
2023/02/25 03:48:19;;;;;;;10.57;1.65;;;;;;;5.13;100.00;100738.06;2613054;36;20046;-53
2023/02/25 03:50:53;;;;;;;16.02;2.45;;;;;;;4.96;100.00;100749.00;2614365;36;20049;-55
2023/02/25 03:53:22;;;;;;;10.50;2.42;;;;;;;4.88;100.00;100749.53;2614392;36;20034;-50
2023/02/25 03:55:50;;;;;;;11.32;1.90;;;;;;;4.81;100.00;100743.75;2614143;36;20027;-51
2023/02/25 03:58:19;;;;;;;13.00;2.77;;;;;;;4.84;100.00;100748.88;2614418;36;20566;-55
2023/02/25 04:00:50;;;;;;;18.05;2.35;;;;;;;4.84;100.00;100740.03;2614131;36;20027;-51
2023/02/25 04:03:22;;;;;;;11.05;2.65;;;;;;;4.69;100.00;100750.75;2616343;36;20042;-52
2023/02/25 04:05:50;;;;;;;14.25;2.70;;;;;;;4.70;100.00;100747.13;2615179;36;20037;-53
2023/02/25 04:08:18;;;;;;;25.35;4.03;;;;;;;4.62;100.00;100748.59;2615736;36;20027;-56
2023/02/25 04:10:47;;;;;;;15.38;1.92;;;;;;;4.68;100.00;100762.38;2615444;36;20045;-49
2023/02/25 04:13:19;;;;;;;16.13;2.25;;;;;;;4.66;100.00;100755.44;2615569;36;20046;-51
2023/02/25 04:15:48;;;;;;;17.25;3.83;;;;;;;4.60;100.00;100751.34;2616206;31;20133;-57
2023/02/25 04:18:17;;;;;;;11.98;2.35;;;;;;;4.61;100.00;100757.53;2614236;36;20027;-51
2023/02/25 04:20:48;;;;;;;14.63;3.03;;;;;;;4.64;100.00;100754.66;2614640;36;20038;-50
2023/02/25 04:23:17;;;;;;;12.52;2.65;;;;;;;4.65;100.00;100759.91;2614050;36;20038;-49
2023/02/25 04:25:45;;;;;;;8.80;1.73;;;;;;;4.65;100.00;100761.72;2614652;36;20153;-50
2023/02/25 04:28:14;;;;;;;16.30;2.17;;;;;;;4.72;100.00;100765.69;2614210;36;20065;-51
2023/02/25 04:30:42;;;;;;;15.90;2.28;;;;;;;4.71;100.00;100771.97;2613894;36;20908;-52
2023/02/25 04:33:12;;;;;;;12.55;1.95;;;;;;;4.63;100.00;100774.28;2614342;31;20041;-50
2023/02/25 04:35:40;;;;;;;19.38;2.30;;;;;;;4.60;100.00;100778.00;2615053;36;20045;-50
2023/02/25 04:38:12;;;;;;;15.50;2.58;;;;;;;4.72;100.00;100771.88;2615926;36;20046;-55
2023/02/25 04:40:40;;;;;;;14.70;2.55;;;;;;;4.72;100.00;100784.34;2614504;36;20129;-52
2023/02/25 04:43:09;;;;;;;11.25;1.75;;;;;;;4.76;100.00;100787.69;2614211;36;20038;-50
2023/02/25 04:45:37;;;;;;;15.85;2.15;;;;;;;4.73;100.00;100788.75;2613363;36;20030;-50
2023/02/25 04:48:06;;;;;;;8.35;2.00;;;;;;;4.65;100.00;100791.03;2614052;36;20034;-53
2023/02/25 04:50:34;;;;;;;4.97;2.10;;;;;;;4.59;100.00;100781.63;2614582;36;20121;-49
2023/02/25 04:53:03;;;;;;;10.25;2.28;;;;;;;4.60;100.00;100783.34;2613656;36;20042;-50
2023/02/25 04:55:37;;;;;;;10.98;1.58;;;;;;;4.61;100.00;100776.19;2614016;36;20042;-49
2023/02/25 04:58:05;;;;;;;11.18;2.17;;;;;;;4.66;100.00;100779.44;2613207;36;20030;-50
2023/02/25 05:00:34;;;;;;;7.63;1.48;;;;;;;4.63;100.00;100775.13;2615226;36;20038;-57
2023/02/25 05:03:02;;;;;;;9.90;1.50;;;;;;;4.73;100.00;100776.25;2615437;36;20811;-49
2023/02/25 05:05:30;;;;;;;9.38;1.40;;;;;;;4.66;100.00;100772.28;2615532;36;20562;-57
2023/02/25 05:07:59;;;;;;;11.13;1.77;;;;;;;4.55;100.00;100780.97;2615881;36;20150;-50
2023/02/25 05:10:27;;;;;;;9.45;1.77;;;;;;;4.49;100.00;100776.06;2615037;36;20030;-50
2023/02/25 05:12:58;;;;;;;12.60;1.77;;;;;;;4.58;100.00;100774.59;2615347;36;20034;-54
2023/02/25 05:15:33;;;;;;;12.35;1.92;;;;;;;4.62;100.00;100783.25;2616076;36;20042;-57
2023/02/25 05:18:01;;;;;;;12.48;2.13;;;;;;;4.50;100.00;100788.41;2615461;36;20030;-55
2023/02/25 05:20:30;;;;;;;7.40;1.95;;;;;;;4.49;100.00;100781.38;2615934;36;20045;-50
2023/02/25 05:22:59;;;;;;;14.75;3.00;;;;;;;4.47;100.00;100795.75;2616049;36;20162;-52
2023/02/25 05:25:27;;;;;;;11.15;1.60;;;;;;;4.36;100.00;100797.28;2615731;36;20038;-52
2023/02/25 05:27:58;;;;;;;10.35;1.90;;;;;;;4.47;100.00;100796.59;2616188;36;20030;-50
2023/02/25 05:30:26;;;;;;;17.25;2.80;;;;;;;4.53;100.00;100788.22;2614978;36;20567;-50
2023/02/25 05:32:56;;;;;;;14.67;2.70;;;;;;;4.61;100.00;100784.19;2614185;36;20031;-50
2023/02/25 05:35:24;;;;;;;11.43;2.50;;;;;;;4.66;100.00;100798.09;2614579;36;20307;-50
2023/02/25 05:37:53;;;;;;;13.65;2.30;;;;;;;4.69;100.00;100782.72;2615416;36;20606;-55
2023/02/25 05:40:22;;;;;;;18.52;2.70;;;;;;;4.76;100.00;100793.88;2614896;31;20049;-55
2023/02/25 05:42:50;;;;;;;21.10;3.80;;;;;;;4.82;100.00;100801.47;2615321;36;20034;-54
2023/02/25 05:45:21;;;;;;;16.80;2.53;;;;;;;4.70;100.00;100799.59;2614827;36;20299;-50
2023/02/25 05:47:49;;;;;;;13.88;2.20;;;;;;;4.76;100.00;100799.19;2614333;36;20034;-50
2023/02/25 05:50:18;;;;;;;11.60;2.15;;;;;;;4.56;100.00;100790.69;2613766;36;20026;-48
2023/02/25 05:52:46;;;;;;;20.43;3.00;;;;;;;4.54;100.00;100794.41;2614733;31;20547;-54
2023/02/25 05:55:14;;;;;;;13.63;2.40;;;;;;;4.47;100.00;100785.94;2613973;36;20550;-51
2023/02/25 05:57:43;;;;;;;10.50;2.40;;;;;;;4.60;100.00;100794.00;2614529;36;20049;-56
2023/02/25 06:00:14;;;;;;;15.52;2.70;;;;;;;4.76;100.00;100791.19;2614638;31;20597;-50
2023/02/25 06:02:45;;;;;;;11.48;2.53;;;;;;;4.92;100.00;100804.38;2614620;36;20027;-49
2023/02/25 06:05:14;;;;;;;11.98;2.25;;;;;;;4.95;100.00;100808.63;2614103;36;20516;-53
2023/02/25 06:07:45;;;;;;;12.60;2.42;;;;;;;4.94;100.00;100815.78;2614725;36;20038;-50
2023/02/25 06:10:14;;;;;;;12.40;2.05;;;;;;;4.86;100.00;100816.31;2615745;31;20044;-52
2023/02/25 06:12:42;;;;;;;12.30;2.13;;;;;;;4.80;100.00;100822.06;2614533;36;20447;-50
2023/02/25 06:15:13;;;;;;;17.30;2.47;;;;;;;4.91;100.00;100819.50;2614110;36;20046;-54
2023/02/25 06:17:41;;;;;;;12.38;1.70;;;;;;;4.72;100.00;100825.19;2614897;36;20577;-56
2023/02/25 06:20:15;;;;;;;15.90;1.60;;;;;;;4.67;100.00;100829.13;2612965;31;20053;-48
2023/02/25 06:22:43;;;;;;;11.75;2.47;;;;;;;4.67;100.00;100834.47;2613261;36;20030;-57
2023/02/25 06:25:12;;;;;;;10.95;1.67;;;;;;;4.67;100.00;100837.13;2613647;36;20038;-49
2023/02/25 06:27:40;;;;;;;14.52;2.10;;;;;;;4.73;100.00;100842.06;2613421;36;20030;-49
2023/02/25 06:30:10;;;;;;;12.93;2.08;;;;;;;4.78;100.00;100834.59;2612679;36;20041;-52
2023/02/25 06:32:39;;;;;;;8.18;2.03;;;;;;;4.83;100.00;100844.97;2614075;36;20045;-51
2023/02/25 06:35:08;;;;;;;14.23;2.35;;;;;;;4.68;100.00;100831.69;2613393;36;20034;-50
2023/02/25 06:37:39;;;;;;;12.73;1.90;;;;;;;4.73;100.00;100852.72;2613325;36;20046;-50
2023/02/25 06:40:11;;;;;;;13.93;2.03;;;;;;;4.60;100.00;100859.81;2614994;36;20034;-57
2023/02/25 06:42:39;;;;;;;9.95;1.90;;;;;;;4.48;100.00;100843.63;2614560;36;20027;-53
2023/02/25 06:45:09;;;;;;;9.63;3.33;;;;;;;4.54;100.00;100851.22;2615239;36;20057;-52
2023/02/25 06:47:37;;;;;;;;;;;;;;;4.55;100.00;100852.94;2613392;36;20558;-57
2023/02/25 06:50:06;;;;;;;8.82;2.20;;;;;;;4.50;100.00;100852.38;2613660;36;19939;-55
2023/02/25 06:52:34;;;;;;;8.75;2.20;;;;;;;4.55;100.00;100855.63;2615200;31;20039;-56
2023/02/25 06:55:07;;;;;;;8.18;1.60;;;;;;;4.53;100.00;100852.19;2613453;36;20027;-55
2023/02/25 06:57:35;;;;;;;10.60;3.33;;;;;;;4.66;100.00;100852.25;2614792;36;20034;-53
2023/02/25 07:00:05;;;;;;;11.45;1.73;;;;;;;4.71;100.00;100857.28;2615497;36;20575;-56
2023/02/25 07:02:34;;;;;;;8.13;1.88;;;;;;;4.65;100.00;100860.34;2614666;36;20141;-51
2023/02/25 07:05:04;;;;;;;9.90;1.83;;;;;;;4.72;100.00;100867.00;2616075;36;20037;-52
2023/02/25 07:07:33;;;;;;;11.50;1.75;;;;;;;4.74;100.00;100865.09;2615384;36;20062;-51
2023/02/25 07:10:01;;;;;;;9.00;2.55;;;;;;;4.69;100.00;100872.53;2614583;36;20042;-52
2023/02/25 07:12:32;;;;;;;7.82;1.63;;;;;;;4.76;100.00;100868.53;2615401;36;20072;-53
2023/02/25 07:15:01;;;;;;;10.05;1.80;;;;;;;4.70;100.00;100882.25;2615473;36;20614;-51
2023/02/25 07:17:29;;;;;;;11.93;2.17;;;;;;;4.76;100.00;100884.53;2611957;31;20459;-55
2023/02/25 07:19:58;;;;;;;11.27;2.50;;;;;;;4.69;100.00;100883.19;2613672;36;20038;-56
2023/02/25 07:22:26;;;;;;;9.73;3.38;;;;;;;4.73;100.00;100888.22;2614494;36;20030;-52
2023/02/25 07:24:54;;;;;;;12.13;2.13;;;;;;;4.77;100.00;100896.03;2613206;36;20035;-53
2023/02/25 07:27:23;;;;;;;9.15;1.70;;;;;;;4.85;100.00;100894.59;2614666;36;20038;-54
2023/02/25 07:29:54;;;;;;;7.80;1.67;;;;;;;4.97;100.00;100900.09;2613893;36;20027;-52
2023/02/25 07:32:23;;;;;;;12.07;2.38;;;;;;;4.97;100.00;100908.09;2613478;31;20061;-56
2023/02/25 07:34:51;;;;;;;5.45;2.22;;;;;;;5.08;100.00;100900.28;2613491;36;20034;-57
2023/02/25 07:37:19;;;;;;;10.45;2.25;;;;;;;4.99;100.00;100911.53;2614575;36;20041;-49
2023/02/25 07:39:47;;;;;;;8.10;2.10;;;;;;;4.95;100.00;100920.66;2613872;36;20022;-50
2023/02/25 07:42:16;;;;;;;7.07;1.40;;;;;;;4.89;100.00;100903.28;2612978;36;20026;-58
2023/02/25 07:44:45;;;;;;;10.68;2.30;;;;;;;4.94;100.00;100908.31;2614679;36;20038;-54
2023/02/25 07:47:15;;;;;;;9.45;3.03;;;;;;;5.00;100.00;100918.56;2613862;36;20038;-56
2023/02/25 07:49:44;;;;;;;5.50;1.88;;;;;;;4.97;100.00;100924.09;2614360;31;20038;-51
2023/02/25 07:52:12;;;;;;;8.88;2.15;;;;;;;5.04;100.00;100920.09;2613843;36;20058;-55
2023/02/25 07:54:41;;;;;;;10.82;2.53;;;;;;;5.12;100.00;100923.09;2615506;36;20126;-55
2023/02/25 07:57:09;;;;;;;8.47;1.90;;;;;;;4.98;100.00;100928.50;2613344;36;20031;-50
2023/02/25 07:59:37;;;;;;;10.32;1.33;;;;;;;4.98;100.00;100939.16;2615877;36;20326;-49
2023/02/25 08:02:09;;;;;;;5.88;1.38;;;;;;;4.91;100.00;100952.03;2615303;36;20039;-50
2023/02/25 08:04:40;;;;;;;4.63;1.35;;;;;;;4.97;100.00;100956.13;2616563;36;20057;-48
2023/02/25 08:07:08;;;;;;;14.00;1.80;;;;;;;4.97;100.00;100956.13;2615960;36;20419;-49
2023/02/25 08:09:37;;;;;;;11.80;1.85;;;;;;;4.93;100.00;100958.09;2616444;36;20038;-49
2023/02/25 08:12:06;;;;;;;11.43;1.52;;;;;;;4.71;100.00;100953.28;2616354;36;20543;-54
2023/02/25 08:14:34;;;;;;;4.13;1.08;;;;;;;4.67;100.00;100965.94;2615088;36;20560;-54
2023/02/25 08:17:03;;;;;;;6.43;1.20;;;;;;;4.71;100.00;100967.47;2615184;36;20042;-53
2023/02/25 08:19:31;;;;;;;7.18;1.42;;;;;;;4.60;100.00;100983.28;2616124;36;20129;-56
2023/02/25 08:22:03;;;;;;;7.63;1.20;;;;;;;4.55;100.00;100978.22;2616358;36;20026;-49
2023/02/25 08:24:31;;;;;;;4.32;1.00;;;;;;;4.67;100.00;100987.28;2616725;36;20035;-50
2023/02/25 08:27:00;;;;;;;7.95;1.48;;;;;;;4.68;100.00;100986.34;2616409;36;20034;-52
2023/02/25 08:29:29;;;;;;;7.07;1.20;;;;;;;4.64;100.00;100990.13;2616549;36;20050;-50
2023/02/25 08:31:57;;;;;;;8.07;2.07;;;;;;;4.63;100.00;100987.56;2613124;36;20574;-51
2023/02/25 08:34:26;;;;;;;6.33;1.40;;;;;;;4.57;100.00;100988.78;2616186;36;20276;-51
2023/02/25 08:36:54;;;;;;;5.57;1.30;;;;;;;4.64;100.00;100991.91;2615975;36;20034;-58
2023/02/25 08:39:25;;;;;;;3.20;1.13;;;;;;;4.56;100.00;101001.28;2615847;36;20022;-53
2023/02/25 08:41:54;;;;;;;2.88;0.93;;;;;;;4.64;100.00;101002.59;2616070;36;20498;-49
2023/02/25 08:44:22;;;;;;;10.65;1.70;;;;;;;4.62;100.00;101007.16;2616373;36;20049;-56
2023/02/25 08:46:50;;;;;;;6.53;1.27;;;;;;;4.67;100.00;101007.75;2616726;36;20034;-49
2023/02/25 08:49:19;;;;;;;13.00;1.23;;;;;;;4.59;100.00;101002.88;2615827;36;20038;-55
2023/02/25 08:51:51;;;;;;;7.45;1.20;;;;;;;4.57;100.00;101018.13;2616575;36;20038;-52
2023/02/25 08:54:19;;;;;;;4.75;1.77;;;;;;;4.38;100.00;101010.38;2616205;36;20117;-51
2023/02/25 08:56:54;;;;;;;6.47;1.30;;;;;;;4.59;100.00;101015.34;2616545;31;20034;-53
2023/02/25 08:59:23;;;;;;;4.35;1.27;;;;;;;4.64;100.00;101018.59;2616545;36;20122;-54
2023/02/25 09:01:53;;;;;;;7.30;1.13;;;;;;;4.80;100.00;101029.16;2615817;31;20026;-55
2023/02/25 09:04:23;;;;;;;8.27;1.35;;;;;;;4.97;100.00;101042.31;2615896;36;20034;-51
2023/02/25 09:06:52;;;;;;;7.65;1.45;;;;;;;4.81;100.00;101039.75;2616756;36;20047;-51
2023/02/25 09:09:23;;;;;;;5.13;0.95;;;;;;;5.06;100.00;101040.88;2616751;31;20487;-51
2023/02/25 09:11:54;;;;;;;7.15;1.13;;;;;;;5.38;100.00;101046.00;2615728;36;20065;-50
2023/02/25 09:14:23;;;;;;;3.90;1.08;;;;;;;5.38;100.00;101046.00;2616158;36;20057;-52
2023/02/25 09:16:51;;;;;;;8.20;1.30;;;;;;;5.55;100.00;101045.78;2616135;36;20054;-55
2023/02/25 09:19:20;;;;;;;2.00;0.73;;;;;;;5.52;100.00;101054.00;2615927;36;20033;-52
2023/02/25 09:21:49;;;;;;;2.83;1.33;;;;;;;5.67;100.00;101049.47;2615621;36;20046;-51
2023/02/25 09:24:19;;;;;;;7.35;2.08;;;;;;;5.61;100.00;101058.75;2615352;36;20042;-53
2023/02/25 09:26:47;;;;;;;;;;;;;;;5.58;100.00;101058.94;2616949;36;20049;-48
2023/02/25 09:29:18;;;;;;;8.00;1.98;;;;;;;5.61;100.00;101068.56;2615824;36;19954;-51
2023/02/25 09:31:47;;;;;;;15.20;3.30;;;;;;;5.35;100.00;101067.56;2616188;31;20034;-53
2023/02/25 09:34:15;;;;;;;11.82;5.15;;;;;;;5.55;100.00;101069.81;2615737;36;20046;-49
2023/02/25 09:36:44;;;;;;;8.70;1.75;;;;;;;5.64;100.00;101067.50;2616622;36;20540;-53
2023/02/25 09:39:13;;;;;;;4.70;1.10;;;;;;;5.66;100.00;101076.28;2615057;36;20057;-50
2023/02/25 09:41:51;;;;;;;5.72;1.38;;;;;;;5.61;100.00;101069.41;2616541;36;20074;-52
2023/02/25 09:44:27;;;;;;;4.15;1.40;;;;;;;5.72;100.00;101067.88;2616679;36;20488;-55
2023/02/25 09:47:01;;;;;;;11.93;3.78;;;;;;;5.87;100.00;101077.53;2616683;36;20065;-54
2023/02/25 09:49:34;;;;;;;8.60;1.95;;;;;;;5.65;100.00;101086.09;2615681;36;20042;-54
2023/02/25 09:52:09;;;;;;;6.13;2.38;;;;;;;5.79;100.00;101080.72;2616394;36;20042;-52
2023/02/25 09:54:43;;;;;;;15.15;5.47;;;;;;;5.90;100.00;101080.03;2615896;36;20039;-51
2023/02/25 09:57:14;;;;;;;8.80;2.00;;;;;;;6.11;100.00;101088.47;2615986;36;20034;-51
2023/02/25 09:59:45;;;;;;;5.43;0.90;;;;;;;6.52;100.00;101088.47;2616116;36;20121;-50
2023/02/25 10:02:31;;;;;;;4.10;1.27;;;;;;;6.81;100.00;101086.47;2615727;36;20038;-54
2023/02/25 10:05:16;;;;;;;6.95;1.38;;;;;;;6.56;100.00;101093.50;2616956;36;20470;-49
2023/02/25 10:07:56;;;;;;;4.65;1.38;;;;;;;6.61;100.00;101094.06;2616773;31;20447;-56
2023/02/25 10:10:32;;;;;;;5.18;1.48;;;;;;;6.27;100.00;101106.16;2615384;31;20559;-50
2023/02/25 10:13:07;;;;;;;3.88;1.15;;;;;;;6.43;100.00;101105.97;2616252;36;20057;-50
2023/02/25 10:15:52;;;;;;;5.70;1.38;;;;;;;6.21;100.00;101115.44;2614105;36;20045;-49
2023/02/25 10:18:34;;;;;;;8.85;1.02;;;;;;;6.08;100.00;101114.53;2613421;36;20039;-56
2023/02/25 10:21:21;;;;;;;6.43;1.05;;;;;;;5.87;100.00;101109.59;2615796;36;20042;-54
2023/02/25 10:24:06;;;;;;;8.35;1.20;;;;;;;5.55;100.00;101117.88;2614894;36;20030;-53
2023/02/25 10:26:38;;;;;;;3.25;1.20;;;;;;;5.48;100.00;101124.56;2615571;36;20532;-52
2023/02/25 10:29:08;;;;;;;6.00;1.00;;;;;;;5.34;100.00;101121.88;2614363;36;20042;-50
2023/02/25 10:34:26;;;;;;;8.05;1.27;;;;;;;5.57;100.00;101134.66;2619313;36;20199;-54
2023/02/25 10:36:57;;;;;;;9.50;1.75;;;;;;;5.43;100.00;101129.31;2619675;31;20559;-49
2023/02/25 10:39:27;;;;;;;4.05;1.38;;;;;;;5.17;100.00;101150.47;2619397;36;20034;-51
2023/02/25 10:41:56;;;;;;;8.02;1.55;;;;;;;4.53;100.00;101161.41;2619450;31;20026;-49
2023/02/25 10:44:24;;;;;;;8.63;1.60;;;;;;;4.59;100.00;101164.63;2620018;31;20034;-53
2023/02/25 10:46:57;;;;;;;6.40;1.42;;;;;;;4.54;100.00;101184.41;2620045;36;20642;-55
2023/02/25 10:49:36;;;;;;;6.05;1.30;;;;;;;4.36;100.00;101181.03;2616777;36;20042;-55
2023/02/25 10:52:09;;;;;;;6.22;1.15;;;;;;;4.20;100.00;101172.19;2619559;36;20057;-51
2023/02/25 10:54:49;;;;;;;7.30;1.40;;;;;;;4.26;100.00;101169.16;2618964;36;20046;-51
2023/02/25 10:57:20;;;;;;;6.05;1.67;;;;;;;4.50;100.00;101177.53;2616327;36;20053;-52
2023/02/25 10:59:49;;;;;;;12.73;2.33;;;;;;;4.42;100.00;101174.47;2619964;36;20057;-56
2023/02/25 11:02:25;;;;;;;3.75;1.30;;;;;;;4.63;100.00;101180.38;2619011;36;21011;-53
2023/02/25 11:04:57;;;;;;;10.43;2.30;;;;;;;4.91;100.00;101182.25;2620863;36;20045;-54
2023/02/25 11:07:34;;;;;;;10.07;1.23;;;;;;;5.20;100.00;101176.13;2620183;36;20026;-52
2023/02/25 11:10:15;;;;;;;7.35;1.58;;;;;;;5.79;100.00;101178.69;2617308;36;20487;-51
2023/02/25 11:12:45;;;;;;;3.75;1.67;;;;;;;6.06;100.00;101184.09;2619830;36;20158;-55
2023/02/25 11:15:31;;;;;;;12.15;1.88;;;;;;;5.94;100.00;101188.38;2619977;36;20506;-56
2023/02/25 11:18:03;;;;;;;10.07;1.23;;;;;;;5.79;100.00;101189.38;2620101;36;20042;-54
2023/02/25 11:20:35;;;;;;;7.47;1.20;;;;;;;5.80;100.00;101188.44;2619066;36;20042;-54
2023/02/25 11:23:03;;;;;;;5.93;1.55;;;;;;;5.74;100.00;101187.00;2620284;31;20040;-56
2023/02/25 11:25:39;;;;;;;5.10;1.25;;;;;;;5.84;100.00;101192.59;2619571;36;20034;-54
2023/02/25 11:28:19;;;;;;;7.28;2.20;;;;;;;5.94;100.00;101188.38;2620458;36;20442;-54
2023/02/25 11:30:47;;;;;;;5.32;1.40;;;;;;;6.18;100.00;101187.78;2619886;36;20605;-50
2023/02/25 11:33:24;;;;;;;7.18;1.42;;;;;;;6.24;100.00;101189.22;2618851;36;20033;-51
2023/02/25 11:36:01;;;;;;;6.53;1.63;;;;;;;6.07;100.00;101193.84;2620596;36;20030;-55
2023/02/25 11:38:34;;;;;;;7.28;1.40;;;;;;;6.04;100.00;101203.88;2618009;36;20042;-52
2023/02/25 11:41:03;;;;;;;9.23;1.30;;;;;;;6.12;100.00;101205.13;2618432;36;20082;-53
2023/02/25 11:43:39;;;;;;;6.18;1.35;;;;;;;5.95;100.00;101206.16;2619412;36;20041;-49